createdAt,value
2023-02-09T00:01:27.495Z,29.67
2023-02-09T00:03:55.874Z,33.92
2023-02-09T00:06:29.729Z,35.70
2023-02-09T00:08:58.450Z,34.97
2023-02-09T00:11:48.313Z,31.98
2023-02-09T00:14:19.198Z,34.75
2023-02-09T00:19:17.597Z,35.72
2023-02-09T00:21:47.344Z,35.47
2023-02-09T00:24:15.654Z,32.20
2023-02-09T00:26:43.497Z,32.35
2023-02-09T00:29:11.661Z,30.50
2023-02-09T00:31:40.249Z,33.47
2023-02-09T00:34:08.760Z,34.15
2023-02-09T00:36:36.659Z,33.88
2023-02-09T00:39:05.910Z,30.98
2023-02-09T00:41:51.994Z,34.47
2023-02-09T00:44:19.920Z,33.40
2023-02-09T00:46:48.099Z,34.35
2023-02-09T00:49:16.288Z,33.85
2023-02-09T00:51:44.161Z,32.00
2023-02-09T00:54:13.747Z,28.17
2023-02-09T00:56:41.622Z,32.47
2023-02-09T00:59:09.685Z,32.85
2023-02-09T01:01:37.867Z,31.40
2023-02-09T01:04:06.460Z,31.40
2023-02-09T01:06:34.627Z,33.63
2023-02-09T01:09:03.262Z,34.85
2023-02-09T01:11:34.058Z,33.15
2023-02-09T01:14:04.207Z,37.25
2023-02-09T01:16:32.389Z,30.00
2023-02-09T01:19:01.670Z,32.05
2023-02-09T01:21:32.047Z,31.88
2023-02-09T01:24:00.552Z,34.33
2023-02-09T01:26:28.665Z,35.45
2023-02-09T01:28:57.869Z,32.10
2023-02-09T01:31:28.289Z,31.00
2023-02-09T01:33:58.057Z,34.13
2023-02-09T01:36:28.818Z,35.10
2023-02-09T01:38:57.739Z,32.03
2023-02-09T01:41:26.622Z,35.55
2023-02-09T01:44:01.594Z,36.90
2023-02-09T01:46:31.135Z,33.83
2023-02-09T01:49:06.272Z,32.72
2023-02-09T01:51:37.857Z,34.53
2023-02-09T01:54:09.090Z,32.75
2023-02-09T01:56:39.818Z,31.60
2023-02-09T01:59:11.323Z,34.55
2023-02-09T02:01:40.996Z,31.67
2023-02-09T02:04:09.265Z,34.88
2023-02-09T02:06:37.974Z,30.92
2023-02-09T02:09:11.121Z,35.33
2023-02-09T02:11:39.467Z,32.10
2023-02-09T02:14:31.032Z,33.40
2023-02-09T02:17:08.888Z,30.40
2023-02-09T02:20:10.069Z,34.42
2023-02-09T02:22:49.494Z,34.90
2023-02-09T02:25:44.015Z,36.08
2023-02-09T02:28:41.228Z,41.50
2023-02-09T02:31:46.468Z,34.78
2023-02-09T02:34:21.260Z,37.25
2023-02-09T02:36:57.499Z,43.83
2023-02-09T02:39:30.270Z,37.33
2023-02-09T02:44:53.690Z,40.22
2023-02-09T02:47:25.047Z,35.80
2023-02-09T02:49:56.630Z,38.17
2023-02-09T02:52:24.557Z,34.38
2023-02-09T02:54:58.908Z,32.13
2023-02-09T02:57:31.625Z,34.38
2023-02-09T03:02:34.647Z,39.72
2023-02-09T03:05:04.075Z,37.72
2023-02-09T03:07:32.881Z,35.28
2023-02-09T03:10:03.086Z,34.05
2023-02-09T03:12:41.776Z,34.65
2023-02-09T03:15:19.290Z,33.35
2023-02-09T03:17:55.082Z,31.45
2023-02-09T03:20:28.738Z,32.20
2023-02-09T03:23:02.497Z,32.13
2023-02-09T03:25:33.284Z,34.20
2023-02-09T03:28:07.191Z,35.75
2023-02-09T03:30:36.483Z,33.17
2023-02-09T03:33:08.126Z,30.80
2023-02-09T03:35:42.235Z,36.95
2023-02-09T03:38:10.113Z,35.22
2023-02-09T03:40:38.059Z,38.80
2023-02-09T03:43:06.011Z,34.17
2023-02-09T03:45:34.019Z,35.65
2023-02-09T03:48:01.857Z,38.50
2023-02-09T03:50:31.932Z,37.83
2023-02-09T03:52:59.956Z,37.67
2023-02-09T03:55:30.998Z,37.28
2023-02-09T03:57:58.855Z,34.58
2023-02-09T04:00:26.780Z,36.75
2023-02-09T04:02:56.272Z,38.30
2023-02-09T04:05:24.163Z,31.40
2023-02-09T04:07:53.465Z,32.70
2023-02-09T04:10:21.467Z,33.47
2023-02-09T04:12:49.320Z,31.52
2023-02-09T04:15:17.307Z,35.80
2023-02-09T04:17:45.161Z,34.17
2023-02-09T04:20:13.103Z,31.75
2023-02-09T04:22:41.057Z,37.13
2023-02-09T04:25:10.583Z,34.25
2023-02-09T04:27:38.667Z,34.67
2023-02-09T04:30:07.377Z,36.67
2023-02-09T04:32:35.237Z,33.40
2023-02-09T04:35:03.071Z,33.28
2023-02-09T04:37:30.970Z,35.10
2023-02-09T04:39:58.838Z,34.85
2023-02-09T04:42:28.052Z,36.42
2023-02-09T04:44:55.909Z,33.53
2023-02-09T04:47:23.758Z,32.03
2023-02-09T04:49:51.643Z,37.50
2023-02-09T04:52:19.601Z,32.47
2023-02-09T04:54:47.438Z,35.00
2023-02-09T04:57:32.679Z,30.50
2023-02-09T05:00:01.861Z,33.40
2023-02-09T05:02:29.740Z,32.10
2023-02-09T05:04:57.747Z,30.88
2023-02-09T05:07:26.448Z,33.65
2023-02-09T05:09:54.338Z,35.65
2023-02-09T05:12:22.234Z,34.00
2023-02-09T05:14:50.162Z,33.50
2023-02-09T05:17:21.049Z,34.33
2023-02-09T05:19:49.064Z,33.80
2023-02-09T05:22:17.038Z,33.92
2023-02-09T05:24:44.952Z,34.88
2023-02-09T05:27:12.805Z,34.22
2023-02-09T05:29:40.670Z,35.65
2023-02-09T05:32:08.620Z,30.08
2023-02-09T05:34:38.419Z,37.42
2023-02-09T05:37:06.329Z,31.67
2023-02-09T05:39:34.199Z,32.45
2023-02-09T05:42:17.702Z,35.10
2023-02-09T05:44:47.593Z,30.48
2023-02-09T05:47:17.838Z,32.83
2023-02-09T05:49:47.059Z,32.60
2023-02-09T05:52:16.921Z,34.03
2023-02-09T05:54:45.145Z,31.48
2023-02-09T05:57:13.123Z,32.75
2023-02-09T05:59:41.079Z,32.88
2023-02-09T06:02:09.838Z,29.95
2023-02-09T06:04:38.268Z,30.48
2023-02-09T06:07:07.497Z,33.05
2023-02-09T06:09:35.354Z,28.05
2023-02-09T06:12:03.196Z,27.70
2023-02-09T06:14:31.057Z,22.77
2023-02-09T06:16:58.945Z,27.08
2023-02-09T06:19:26.795Z,27.00
2023-02-09T06:21:54.677Z,24.85
2023-02-09T06:24:23.890Z,30.10
2023-02-09T06:26:51.809Z,28.92
2023-02-09T06:29:19.923Z,26.33
2023-02-09T06:31:47.946Z,28.10
2023-02-09T06:34:15.890Z,28.00
2023-02-09T06:36:43.723Z,25.80
2023-02-09T06:39:12.246Z,24.27
2023-02-09T06:41:41.475Z,26.27
2023-02-09T06:44:09.337Z,22.63
2023-02-09T06:46:37.271Z,22.25
2023-02-09T06:49:05.154Z,19.75
2023-02-09T06:51:33.406Z,24.23
2023-02-09T06:54:01.503Z,20.60
2023-02-09T06:56:29.396Z,20.80
2023-02-09T06:58:58.636Z,19.65
2023-02-09T07:01:26.508Z,19.90
2023-02-09T07:03:54.404Z,22.30
2023-02-09T07:06:22.819Z,18.67
2023-02-09T07:08:51.249Z,20.85
2023-02-09T07:11:19.977Z,18.25
2023-02-09T07:13:47.833Z,20.35
2023-02-09T07:16:17.376Z,20.15
2023-02-09T07:18:45.303Z,17.08
2023-02-09T07:21:18.385Z,20.33
2023-02-09T07:23:46.419Z,18.83
2023-02-09T07:26:16.540Z,18.95
2023-02-09T07:28:44.553Z,19.90
2023-02-09T07:31:14.608Z,19.23
2023-02-09T07:33:43.969Z,18.15
2023-02-09T07:36:14.130Z,19.15
2023-02-09T07:38:42.364Z,20.05
2023-02-09T07:41:15.716Z,20.45
2023-02-09T07:43:43.664Z,19.02
2023-02-09T07:46:14.268Z,16.73
2023-02-09T07:48:43.517Z,18.95
2023-02-09T07:51:14.794Z,19.77
2023-02-09T07:53:42.772Z,22.75
2023-02-09T07:56:10.632Z,15.88
2023-02-09T07:58:39.209Z,15.80
2023-02-09T08:01:09.268Z,16.88
2023-02-09T08:03:37.352Z,17.58
2023-02-09T08:06:13.125Z,17.67
2023-02-09T08:08:40.991Z,22.35
2023-02-09T08:11:08.868Z,17.48
2023-02-09T08:13:40.884Z,18.70
2023-02-09T08:16:12.657Z,15.35
2023-02-09T08:18:43.985Z,14.55
2023-02-09T08:21:17.057Z,14.93
2023-02-09T08:26:14.967Z,15.70
2023-02-09T08:28:44.919Z,12.25
2023-02-09T08:31:13.843Z,14.45
2023-02-09T08:33:42.482Z,15.10
2023-02-09T08:36:14.517Z,14.98
2023-02-09T08:38:42.449Z,14.50
2023-02-09T08:41:13.031Z,13.77
2023-02-09T08:43:41.455Z,13.80
2023-02-09T08:46:11.594Z,12.50
2023-02-09T08:48:41.716Z,14.07
2023-02-09T08:51:11.618Z,12.85
2023-02-09T08:53:41.271Z,12.13
2023-02-09T08:56:09.178Z,12.60
2023-02-09T08:58:37.054Z,12.90
2023-02-09T09:01:05.600Z,9.57
2023-02-09T09:03:33.608Z,11.18
2023-02-09T09:06:03.221Z,10.65
2023-02-09T09:08:32.433Z,11.85
2023-02-09T09:11:01.852Z,10.68
2023-02-09T09:13:29.988Z,9.48
2023-02-09T09:15:57.968Z,11.63
2023-02-09T09:18:26.935Z,13.95
2023-02-09T09:20:56.156Z,11.50
2023-02-09T09:23:24.023Z,10.07
2023-02-09T09:25:51.927Z,9.93
2023-02-09T09:28:21.328Z,7.75
2023-02-09T09:30:49.537Z,8.80
2023-02-09T09:33:17.503Z,7.95
2023-02-09T09:35:45.734Z,9.40
2023-02-09T09:38:13.795Z,11.57
2023-02-09T09:40:42.843Z,14.98
2023-02-09T09:43:29.197Z,8.68
2023-02-09T09:45:57.269Z,9.40
2023-02-09T09:48:27.405Z,7.82
2023-02-09T09:50:59.426Z,9.07
2023-02-09T09:53:33.211Z,8.32
2023-02-09T09:56:05.694Z,16.52
2023-02-09T09:58:36.164Z,8.63
2023-02-09T10:01:04.420Z,11.38
2023-02-09T10:03:32.373Z,7.88
2023-02-09T10:06:11.549Z,9.10
2023-02-09T10:08:47.138Z,12.13
2023-02-09T10:11:17.010Z,7.95
2023-02-09T10:13:50.272Z,8.90
2023-02-09T10:16:20.942Z,6.38
2023-02-09T10:18:51.544Z,6.22
2023-02-09T10:21:19.849Z,10.30
2023-02-09T10:23:50.222Z,9.02
2023-02-09T10:26:24.631Z,9.15
2023-02-09T10:28:56.801Z,8.02
2023-02-09T10:31:27.265Z,6.75
2023-02-09T10:34:02.854Z,10.27
2023-02-09T10:36:34.047Z,5.90
2023-02-09T10:39:16.407Z,7.22
2023-02-09T10:41:47.203Z,9.63
2023-02-09T10:44:21.409Z,6.95
2023-02-09T10:46:50.137Z,7.30
2023-02-09T10:49:29.888Z,12.60
2023-02-09T10:52:06.848Z,8.85
2023-02-09T10:54:35.363Z,10.35
2023-02-09T10:57:03.224Z,7.45
2023-02-09T10:59:36.325Z,6.63
2023-02-09T11:02:04.292Z,7.00
2023-02-09T11:04:39.178Z,8.75
2023-02-09T11:07:11.946Z,9.40
2023-02-09T11:09:43.722Z,5.95
2023-02-09T11:12:12.644Z,7.93
2023-02-09T11:14:43.075Z,7.43
2023-02-09T11:17:17.992Z,5.60
2023-02-09T11:20:12.929Z,10.50
2023-02-09T11:22:55.937Z,5.63
2023-02-09T11:25:28.588Z,7.77
2023-02-09T11:28:22.315Z,7.63
2023-02-09T11:31:05.203Z,4.95
2023-02-09T11:33:45.030Z,4.70
2023-02-09T11:36:28.391Z,6.78
2023-02-09T11:39:00.043Z,6.22
2023-02-09T11:41:48.938Z,6.15
2023-02-09T11:44:27.456Z,6.43
2023-02-09T11:47:02.897Z,7.82
2023-02-09T11:49:39.833Z,9.02
2023-02-09T11:52:09.924Z,12.73
2023-02-09T11:54:39.586Z,6.03
2023-02-09T11:57:18.457Z,7.35
2023-02-09T11:59:56.293Z,7.03
2023-02-09T12:02:46.050Z,9.73
2023-02-09T12:05:18.424Z,6.20
2023-02-09T12:08:04.888Z,7.20
2023-02-09T12:10:40.262Z,10.48
2023-02-09T12:13:16.642Z,8.40
2023-02-09T12:15:47.901Z,9.02
2023-02-09T12:18:19.913Z,7.93
2023-02-09T12:20:52.920Z,7.60
2023-02-09T12:23:26.967Z,7.65
2023-02-09T12:25:59.478Z,10.25
2023-02-09T12:28:44.513Z,10.20
2023-02-09T12:31:18.994Z,11.43
2023-02-09T12:36:58.864Z,10.27
2023-02-09T12:39:29.475Z,8.88
2023-02-09T12:42:28.167Z,8.88
2023-02-09T12:45:00.642Z,11.48
2023-02-09T12:47:46.790Z,12.75
2023-02-09T12:50:25.565Z,13.60
2023-02-09T12:53:36.124Z,15.07
2023-02-09T12:56:26.624Z,13.27
2023-02-09T12:58:57.626Z,13.68
2023-02-09T13:02:11.004Z,15.52
2023-02-09T13:04:45.443Z,14.50
2023-02-09T13:07:23.851Z,14.00
2023-02-09T13:09:53.620Z,13.45
2023-02-09T13:12:31.750Z,15.73
2023-02-09T13:15:05.927Z,12.40
2023-02-09T13:17:41.596Z,12.43
2023-02-09T13:20:32.404Z,16.35
2023-02-09T13:23:18.126Z,15.40
2023-02-09T13:25:47.237Z,15.00
2023-02-09T13:28:19.123Z,12.80
2023-02-09T13:30:47.914Z,15.90
2023-02-09T13:33:39.815Z,15.95
2023-02-09T13:36:25.868Z,12.05
2023-02-09T13:38:54.333Z,13.63
2023-02-09T13:41:28.129Z,13.95
2023-02-09T13:43:57.587Z,12.77
2023-02-09T13:46:28.115Z,13.20
2023-02-09T13:49:09.983Z,13.00
2023-02-09T13:51:37.968Z,16.48
2023-02-09T13:54:05.983Z,15.82
2023-02-09T13:56:35.735Z,12.95
2023-02-09T13:59:05.345Z,12.57
2023-02-09T14:01:36.032Z,13.15
2023-02-09T14:04:07.739Z,12.23
2023-02-09T14:06:39.300Z,13.70
2023-02-09T14:09:14.510Z,11.65
2023-02-09T14:11:47.905Z,11.82
2023-02-09T14:16:53.686Z,12.65
2023-02-09T14:19:27.511Z,11.52
2023-02-09T14:21:55.584Z,11.88
2023-02-09T14:24:24.473Z,12.80
2023-02-09T14:26:59.303Z,12.15
2023-02-09T14:29:30.364Z,10.23
2023-02-09T14:32:00.876Z,13.68
2023-02-09T14:34:32.783Z,14.55
2023-02-09T14:37:03.010Z,12.35
2023-02-09T14:39:32.012Z,10.90
2023-02-09T14:42:02.725Z,12.80
2023-02-09T14:44:32.290Z,14.13
2023-02-09T14:47:01.950Z,11.68
2023-02-09T14:49:30.433Z,12.75
2023-02-09T14:52:05.681Z,12.55
2023-02-09T14:54:40.967Z,12.68
2023-02-09T14:57:13.071Z,12.30
2023-02-09T14:59:42.483Z,12.95
2023-02-09T15:02:19.153Z,14.65
2023-02-09T15:04:47.262Z,16.48
2023-02-09T15:07:19.933Z,16.23
2023-02-09T15:09:48.281Z,16.38
2023-02-09T15:12:23.570Z,14.30
2023-02-09T15:14:54.773Z,15.43
2023-02-09T15:17:25.518Z,16.08
2023-02-09T15:19:53.734Z,15.80
2023-02-09T15:22:21.938Z,12.77
2023-02-09T15:24:54.327Z,15.32
2023-02-09T15:27:26.503Z,15.07
2023-02-09T15:29:59.743Z,17.40
2023-02-09T15:32:29.610Z,18.60
2023-02-09T15:34:57.624Z,18.75
2023-02-09T15:37:28.162Z,17.35
2023-02-09T15:39:59.633Z,17.98
2023-02-09T15:42:45.211Z,16.88
2023-02-09T15:45:38.012Z,15.27
2023-02-09T15:48:06.726Z,17.17
2023-02-09T15:50:36.602Z,16.23
2023-02-09T15:53:07.017Z,17.35
2023-02-09T15:55:37.049Z,14.13
2023-02-09T15:58:12.195Z,13.80
2023-02-09T16:00:41.794Z,12.85
2023-02-09T16:03:15.199Z,18.40
2023-02-09T16:05:43.504Z,16.95
2023-02-09T16:08:20.086Z,21.75
2023-02-09T16:10:48.558Z,16.92
2023-02-09T16:13:18.757Z,20.63
2023-02-09T16:15:48.649Z,17.80
2023-02-09T16:18:16.672Z,20.52
2023-02-09T16:20:47.727Z,20.23
2023-02-09T16:23:21.010Z,19.90
2023-02-09T16:25:50.789Z,26.00
2023-02-09T16:28:19.387Z,20.67
2023-02-09T16:30:54.666Z,24.42
2023-02-09T16:33:24.326Z,22.73
2023-02-09T16:35:55.269Z,20.17
2023-02-09T16:38:24.938Z,23.02
2023-02-09T16:40:53.894Z,29.13
2023-02-09T16:43:23.064Z,23.95
2023-02-09T16:46:02.800Z,19.83
2023-02-09T16:48:34.544Z,20.65
2023-02-09T16:51:03.319Z,19.60
2023-02-09T16:53:35.958Z,21.17
2023-02-09T16:56:10.045Z,23.17
2023-02-09T16:58:38.343Z,24.23
2023-02-09T17:01:16.814Z,21.45
2023-02-09T17:03:47.967Z,20.30
2023-02-09T17:06:17.981Z,22.90
2023-02-09T17:08:46.107Z,25.08
2023-02-09T17:11:17.558Z,22.23
2023-02-09T17:13:45.664Z,25.80
2023-02-09T17:16:19.791Z,24.85
2023-02-09T17:18:50.301Z,21.83
2023-02-09T17:21:21.926Z,24.02
2023-02-09T17:23:50.439Z,26.75
2023-02-09T17:26:18.953Z,22.90
2023-02-09T17:28:47.414Z,21.80
2023-02-09T17:31:22.432Z,21.00
2023-02-09T17:33:52.962Z,22.30
2023-02-09T17:36:27.520Z,26.52
2023-02-09T17:38:57.674Z,25.55
2023-02-09T17:41:31.085Z,22.98
2023-02-09T17:44:18.779Z,23.85
2023-02-09T17:46:51.697Z,23.08
2023-02-09T17:49:19.691Z,23.10
2023-02-09T17:51:48.493Z,25.13
2023-02-09T17:54:18.686Z,23.15
2023-02-09T17:56:47.186Z,24.45
2023-02-09T17:59:19.442Z,21.98
2023-02-09T18:01:50.066Z,20.10
2023-02-09T18:04:20.943Z,24.25
2023-02-09T18:06:48.902Z,25.35
2023-02-09T18:09:16.905Z,28.80
2023-02-09T18:12:02.414Z,30.00
2023-02-09T18:14:32.465Z,29.20
2023-02-09T18:17:00.690Z,24.35
2023-02-09T18:19:30.091Z,26.08
2023-02-09T18:22:00.028Z,27.65
2023-02-09T18:24:29.985Z,26.48
2023-02-09T18:26:58.105Z,26.23
2023-02-09T18:29:29.243Z,28.27
2023-02-09T18:31:57.769Z,24.23
2023-02-09T18:34:25.811Z,26.35
2023-02-09T18:36:55.401Z,26.63
2023-02-09T18:39:23.444Z,24.65
2023-02-09T18:41:54.344Z,26.23
2023-02-09T18:44:24.551Z,27.27
2023-02-09T18:46:52.563Z,31.15
2023-02-09T18:49:20.519Z,30.15
2023-02-09T18:51:50.708Z,30.05
2023-02-09T18:54:20.300Z,34.72
2023-02-09T18:56:48.489Z,31.35
2023-02-09T18:59:17.685Z,29.90
2023-02-09T19:01:46.405Z,34.05
2023-02-09T19:04:15.056Z,33.70
2023-02-09T19:06:43.284Z,33.22
2023-02-09T19:09:11.172Z,36.95
2023-02-09T19:11:40.508Z,31.20
2023-02-09T19:14:26.115Z,39.83
2023-02-09T19:16:54.115Z,32.70
2023-02-09T19:19:21.998Z,32.83
2023-02-09T19:21:52.088Z,29.92
2023-02-09T19:24:20.492Z,31.70
2023-02-09T19:26:49.971Z,32.75
2023-02-09T19:29:17.906Z,33.58
2023-02-09T19:31:46.477Z,31.90
2023-02-09T19:34:14.511Z,30.33
2023-02-09T19:36:42.453Z,35.00
2023-02-09T19:39:11.565Z,29.33
2023-02-09T19:41:39.739Z,31.95
2023-02-09T19:44:08.981Z,30.77
2023-02-09T19:46:37.101Z,38.15
2023-02-09T19:49:05.100Z,32.13
2023-02-09T19:51:33.094Z,37.70
2023-02-09T19:54:01.061Z,33.60
2023-02-09T19:56:31.389Z,35.38
2023-02-09T19:58:59.276Z,34.78
2023-02-09T20:01:29.619Z,37.90
2023-02-09T20:03:57.649Z,31.50
2023-02-09T20:06:26.114Z,34.92
2023-02-09T20:08:54.009Z,29.70
2023-02-09T20:11:22.137Z,36.47
2023-02-09T20:13:52.563Z,36.90
2023-02-09T20:16:22.505Z,32.92
2023-02-09T20:18:52.231Z,35.72
2023-02-09T20:21:22.640Z,32.08
2023-02-09T20:23:53.868Z,36.25
2023-02-09T20:26:28.007Z,30.33
2023-02-09T20:28:57.476Z,34.97
2023-02-09T20:31:29.668Z,36.05
2023-02-09T20:33:59.467Z,32.33
2023-02-09T20:36:27.404Z,33.80
2023-02-09T20:38:55.836Z,31.90
2023-02-09T20:41:23.764Z,38.90
2023-02-09T20:44:09.146Z,34.42
2023-02-09T20:46:54.677Z,33.13
2023-02-09T20:49:32.252Z,33.55
2023-02-09T20:52:00.220Z,33.20
2023-02-09T20:54:28.205Z,29.75
2023-02-09T20:56:56.155Z,31.08
2023-02-09T20:59:25.134Z,35.13
2023-02-09T21:01:53.334Z,33.97
2023-02-09T21:04:21.404Z,32.88
2023-02-09T21:06:50.635Z,30.05
2023-02-09T21:09:19.127Z,28.77
2023-02-09T21:11:49.642Z,37.67
2023-02-09T21:14:27.599Z,30.92
2023-02-09T21:17:00.676Z,35.00
2023-02-09T21:19:28.715Z,25.15
2023-02-09T21:21:58.141Z,30.75
2023-02-09T21:24:26.086Z,29.02
2023-02-09T21:26:53.983Z,25.50
2023-02-09T21:29:22.157Z,29.80
2023-02-09T21:31:51.167Z,29.83
2023-02-09T21:34:19.133Z,30.13
2023-02-09T21:36:47.069Z,29.98
2023-02-09T21:39:16.378Z,29.08
2023-02-09T21:42:01.709Z,28.02
2023-02-09T21:44:30.125Z,31.63
2023-02-09T21:46:58.120Z,33.97
2023-02-09T21:49:26.042Z,23.77
2023-02-09T21:51:54.168Z,25.45
2023-02-09T21:54:25.313Z,26.15
2023-02-09T21:56:53.730Z,28.35
2023-02-09T21:59:21.745Z,30.98
2023-02-09T22:01:49.703Z,29.30
2023-02-09T22:04:17.696Z,27.20
2023-02-09T22:06:47.116Z,27.00
2023-02-09T22:09:15.196Z,27.05
2023-02-09T22:11:44.541Z,26.63
2023-02-09T22:14:12.500Z,22.40
2023-02-09T22:16:40.503Z,25.80
2023-02-09T22:19:08.430Z,24.17
2023-02-09T22:21:36.390Z,24.92
2023-02-09T22:24:04.548Z,23.92
2023-02-09T22:26:32.653Z,25.35
2023-02-09T22:29:01.956Z,24.65
2023-02-09T22:31:29.926Z,27.13
2023-02-09T22:33:58.427Z,26.70
2023-02-09T22:36:26.631Z,25.73
2023-02-09T22:38:54.527Z,24.65
2023-02-09T22:41:24.339Z,30.90
2023-02-09T22:43:54.076Z,26.48
2023-02-09T22:46:25.972Z,27.58
2023-02-09T22:48:54.967Z,30.60
2023-02-09T22:51:23.909Z,26.08
2023-02-09T22:53:52.213Z,25.50
2023-02-09T22:56:20.254Z,24.65
2023-02-09T22:58:48.559Z,28.27
2023-02-09T23:01:17.746Z,24.90
2023-02-09T23:03:47.268Z,28.02
2023-02-09T23:06:18.479Z,27.85
2023-02-09T23:08:46.839Z,27.00
2023-02-09T23:11:16.638Z,25.60
2023-02-09T23:13:46.224Z,27.52
2023-02-09T23:16:16.164Z,25.17
2023-02-09T23:18:49.860Z,29.33
2023-02-09T23:21:18.877Z,28.70
2023-02-09T23:23:47.327Z,28.50
2023-02-09T23:26:16.988Z,25.27
2023-02-09T23:28:45.058Z,29.58
2023-02-09T23:31:15.490Z,26.90
2023-02-09T23:33:43.666Z,27.90
2023-02-09T23:36:15.010Z,31.67
2023-02-09T23:38:43.169Z,29.48
2023-02-09T23:41:13.290Z,25.63
2023-02-09T23:43:41.694Z,26.27
2023-02-09T23:46:13.118Z,20.98
2023-02-09T23:48:41.296Z,23.58
2023-02-09T23:51:12.536Z,24.00
2023-02-09T23:53:41.871Z,24.02
2023-02-09T23:56:09.891Z,23.40
2023-02-09T23:58:39.646Z,24.23
